Time;durP1;ratioP1;P1;durP2;ratioP2;P2;SDS_P1;SDS_P2;PMS_P1;PMS_P2;Temp;Humidity;BMP_temperature;BMP_pressure;BME280_temperature;BME280_humidity;BME280_pressure;Samples;Min_cycle;Max_cycle;Signal;HPM_P1;HPM_P2
2020/07/06 00:00:25;;;;;;;3.55;2.4;;;;;;;19.77;78.22949;95122.12;;;;
2020/07/06 00:01:26;;;;;;;3.55;2.4;;;;;;;19.77;78.22949;95122.12;;;;
2020/07/06 00:02:27;;;;;;;3.55;2.4;;;;;;;19.77;78.22949;95122.12;;;;
2020/07/06 00:03:27;;;;;;;2.3;2.1;;;;;;;19.69;79.22949;95115.55;;;;
2020/07/06 00:04:28;;;;;;;2.3;2.1;;;;;;;19.69;79.22949;95115.55;;;;
2020/07/06 00:05:28;;;;;;;2.3;2.1;;;;;;;19.69;79.22949;95115.55;;;;
2020/07/06 00:06:29;;;;;;;2.3;2.1;;;;;;;19.69;79.22949;95115.55;;;;
2020/07/06 00:07:29;;;;;;;2.3;2.1;;;;;;;19.69;79.22949;95115.55;;;;
2020/07/06 00:08:30;;;;;;;2.3;2.1;;;;;;;19.69;79.22949;95115.55;;;;
2020/07/06 00:09:30;;;;;;;2.3;2.1;;;;;;;19.69;79.22949;95115.55;;;;
2020/07/06 00:10:32;;;;;;;2.3;2.1;;;;;;;19.69;79.22949;95115.55;;;;
2020/07/06 00:11:33;;;;;;;2.3;2.1;;;;;;;19.69;79.22949;95115.55;;;;
2020/07/06 00:12:34;;;;;;;2.3;2.1;;;;;;;19.69;79.22949;95115.55;;;;
2020/07/06 00:13:34;;;;;;;2.3;2.1;;;;;;;19.69;79.22949;95115.55;;;;
2020/07/06 00:14:35;;;;;;;2.7;1.9;;;;;;;19.64;79.80957;95113.7;;;;
2020/07/06 00:15:35;;;;;;;2.7;1.9;;;;;;;19.64;79.80957;95113.7;;;;
2020/07/06 00:16:36;;;;;;;2.7;1.9;;;;;;;19.64;79.80957;95113.7;;;;
2020/07/06 00:17:36;;;;;;;2.7;1.9;;;;;;;19.64;79.80957;95113.7;;;;
2020/07/06 00:18:37;;;;;;;2.7;1.9;;;;;;;19.64;79.80957;95113.7;;;;
2020/07/06 00:19:37;;;;;;;2.7;1.9;;;;;;;19.64;79.80957;95113.7;;;;
2020/07/06 00:20:38;;;;;;;2.7;1.9;;;;;;;19.64;79.80957;95113.7;;;;
2020/07/06 00:21:38;;;;;;;2.7;1.9;;;;;;;19.64;79.80957;95113.7;;;;
2020/07/06 00:22:39;;;;;;;2.7;1.9;;;;;;;19.64;79.80957;95113.7;;;;
2020/07/06 00:23:39;;;;;;;2.7;1.9;;;;;;;19.64;79.80957;95113.7;;;;
2020/07/06 00:24:40;;;;;;;1.9;1.75;;;;;;;19.61;79.90332;95106.47;;;;
2020/07/06 00:25:40;;;;;;;1.9;1.75;;;;;;;19.61;79.90332;95106.47;;;;
2020/07/06 00:26:41;;;;;;;1.9;1.75;;;;;;;19.61;79.90332;95106.47;;;;
2020/07/06 00:27:41;;;;;;;1.9;1.75;;;;;;;19.61;79.90332;95106.47;;;;
2020/07/06 00:28:42;;;;;;;1.9;1.75;;;;;;;19.61;79.90332;95106.47;;;;
2020/07/06 00:29:42;;;;;;;1.9;1.75;;;;;;;19.61;79.90332;95106.47;;;;
2020/07/06 00:30:43;;;;;;;1.9;1.75;;;;;;;19.61;79.90332;95106.47;;;;
2020/07/06 00:31:43;;;;;;;1.9;1.75;;;;;;;19.61;79.90332;95106.47;;;;
2020/07/06 00:32:44;;;;;;;1.9;1.75;;;;;;;19.61;79.90332;95106.47;;;;
2020/07/06 00:33:44;;;;;;;1.9;1.75;;;;;;;19.61;79.90332;95106.47;;;;
2020/07/06 00:34:45;;;;;;;1.9;1.75;;;;;;;19.61;79.90332;95106.47;;;;
2020/07/06 00:35:45;;;;;;;1.9;1.75;;;;;;;19.61;79.90332;95106.47;;;;
2020/07/06 00:36:45;;;;;;;1.9;1.75;;;;;;;19.61;79.90332;95106.47;;;;
2020/07/06 00:37:46;;;;;;;1.9;1.75;;;;;;;19.61;79.90332;95106.47;;;;
2020/07/06 00:38:46;;;;;;;1.9;1.75;;;;;;;19.61;79.90332;95106.47;;;;
2020/07/06 00:39:47;;;;;;;1.9;1.75;;;;;;;19.61;79.90332;95106.47;;;;
2020/07/06 00:40:47;;;;;;;1.9;1.75;;;;;;;19.61;79.90332;95106.47;;;;
2020/07/06 00:41:48;;;;;;;1.9;1.75;;;;;;;19.61;79.90332;95106.47;;;;
2020/07/06 00:42:49;;;;;;;1.9;1.75;;;;;;;19.61;79.90332;95106.47;;;;
2020/07/06 00:43:49;;;;;;;1.9;1.75;;;;;;;19.61;79.90332;95106.47;;;;
2020/07/06 00:44:50;;;;;;;1.9;1.75;;;;;;;19.61;79.90332;95106.47;;;;
2020/07/06 00:45:50;;;;;;;1.9;1.75;;;;;;;19.61;79.90332;95106.47;;;;
2020/07/06 00:46:51;;;;;;;1.7;1.6;;;;;;;19.5;80.23145;95104.99;;;;
2020/07/06 00:47:51;;;;;;;1.7;1.6;;;;;;;19.5;80.23145;95104.99;;;;
2020/07/06 00:48:52;;;;;;;1.7;1.6;;;;;;;19.5;80.23145;95104.99;;;;
2020/07/06 00:49:52;;;;;;;1.7;1.6;;;;;;;19.5;80.23145;95104.99;;;;
2020/07/06 00:50:53;;;;;;;1.7;1.6;;;;;;;19.5;80.23145;95104.99;;;;
2020/07/06 00:51:53;;;;;;;1.7;1.6;;;;;;;19.5;80.23145;95104.99;;;;
2020/07/06 00:52:54;;;;;;;1.7;1.6;;;;;;;19.5;80.23145;95104.99;;;;
2020/07/06 00:53:54;;;;;;;1.7;1.6;;;;;;;19.5;80.23145;95104.99;;;;
2020/07/06 00:54:56;;;;;;;1.7;1.6;;;;;;;19.5;80.23145;95104.99;;;;
2020/07/06 00:55:56;;;;;;;1.7;1.6;;;;;;;19.5;80.23145;95104.99;;;;
2020/07/06 00:56:57;;;;;;;2.5;1.8;;;;;;;19.23;80.69434;95110.25;;;;
2020/07/06 00:57:58;;;;;;;2.5;1.8;;;;;;;19.23;80.69434;95110.25;;;;
2020/07/06 00:58:58;;;;;;;2.5;1.8;;;;;;;19.23;80.69434;95110.25;;;;
2020/07/06 00:59:59;;;;;;;2.5;1.8;;;;;;;19.23;80.69434;95110.25;;;;
2020/07/06 01:00:59;;;;;;;2.5;1.8;;;;;;;19.23;80.69434;95110.25;;;;
2020/07/06 01:02:00;;;;;;;2.5;1.8;;;;;;;19.23;80.69434;95110.25;;;;
2020/07/06 01:03:00;;;;;;;2.5;1.8;;;;;;;19.23;80.69434;95110.25;;;;
2020/07/06 01:04:01;;;;;;;2.5;1.8;;;;;;;19.23;80.69434;95110.25;;;;
2020/07/06 01:05:01;;;;;;;2.5;1.8;;;;;;;19.23;80.69434;95110.25;;;;
2020/07/06 01:06:03;;;;;;;2.5;1.8;;;;;;;19.23;80.69434;95110.25;;;;
2020/07/06 01:07:05;;;;;;;2.5;1.8;;;;;;;19.23;80.69434;95110.25;;;;
2020/07/06 01:08:05;;;;;;;2.05;1.8;;;;;;;18.94;81.14453;95104.46;;;;
2020/07/06 01:09:06;;;;;;;2.05;1.8;;;;;;;18.94;81.14453;95104.46;;;;
2020/07/06 01:10:10;;;;;;;2.05;1.8;;;;;;;18.94;81.14453;95104.46;;;;
2020/07/06 01:11:10;;;;;;;2.05;1.8;;;;;;;18.94;81.14453;95104.46;;;;
2020/07/06 01:12:10;;;;;;;2.05;1.8;;;;;;;18.94;81.14453;95104.46;;;;
2020/07/06 01:13:11;;;;;;;2.05;1.8;;;;;;;18.94;81.14453;95104.46;;;;
2020/07/06 01:14:11;;;;;;;2.05;1.8;;;;;;;18.94;81.14453;95104.46;;;;
2020/07/06 01:15:12;;;;;;;2.05;1.8;;;;;;;18.94;81.14453;95104.46;;;;
2020/07/06 01:16:13;;;;;;;2.05;1.8;;;;;;;18.94;81.14453;95104.46;;;;
2020/07/06 01:17:13;;;;;;;2.05;1.8;;;;;;;18.94;81.14453;95104.46;;;;
2020/07/06 01:18:14;;;;;;;2.7;1.9;;;;;;;18.67;81.9541;95099.33;;;;
2020/07/06 01:19:15;;;;;;;2.7;1.9;;;;;;;18.67;81.9541;95099.33;;;;
2020/07/06 01:20:15;;;;;;;2.7;1.9;;;;;;;18.67;81.9541;95099.33;;;;
2020/07/06 01:21:16;;;;;;;2.7;1.9;;;;;;;18.67;81.9541;95099.33;;;;
2020/07/06 01:22:16;;;;;;;2.7;1.9;;;;;;;18.67;81.9541;95099.33;;;;
2020/07/06 01:23:17;;;;;;;2.7;1.9;;;;;;;18.67;81.9541;95099.33;;;;
2020/07/06 01:24:18;;;;;;;2.7;1.9;;;;;;;18.67;81.9541;95099.33;;;;
2020/07/06 01:25:19;;;;;;;2.7;1.9;;;;;;;18.67;81.9541;95099.33;;;;
2020/07/06 01:26:19;;;;;;;2.7;1.9;;;;;;;18.67;81.9541;95099.33;;;;
2020/07/06 01:27:20;;;;;;;2.7;1.9;;;;;;;18.67;81.9541;95099.33;;;;
2020/07/06 01:28:21;;;;;;;2.75;1.75;;;;;;;18.55;82.62695;95099.31;;;;
2020/07/06 01:29:22;;;;;;;2.75;1.75;;;;;;;18.55;82.62695;95099.31;;;;
2020/07/06 01:30:23;;;;;;;2.75;1.75;;;;;;;18.55;82.62695;95099.31;;;;
2020/07/06 01:31:24;;;;;;;2.75;1.75;;;;;;;18.55;82.62695;95099.31;;;;
2020/07/06 01:32:25;;;;;;;2.75;1.75;;;;;;;18.55;82.62695;95099.31;;;;
2020/07/06 01:33:25;;;;;;;2.75;1.75;;;;;;;18.55;82.62695;95099.31;;;;
2020/07/06 01:34:26;;;;;;;2.75;1.75;;;;;;;18.55;82.62695;95099.31;;;;
2020/07/06 01:35:26;;;;;;;2.75;1.75;;;;;;;18.55;82.62695;95099.31;;;;
2020/07/06 01:36:27;;;;;;;2.75;1.75;;;;;;;18.55;82.62695;95099.31;;;;
2020/07/06 01:37:27;;;;;;;2.75;1.75;;;;;;;18.55;82.62695;95099.31;;;;
2020/07/06 01:38:28;;;;;;;2.75;1.75;;;;;;;18.55;82.62695;95099.31;;;;
2020/07/06 01:39:28;;;;;;;1.9;1.8;;;;;;;18.47;83.06934;95091.76;;;;
2020/07/06 01:40:29;;;;;;;1.9;1.8;;;;;;;18.47;83.06934;95091.76;;;;
2020/07/06 01:41:29;;;;;;;1.9;1.8;;;;;;;18.47;83.06934;95091.76;;;;
2020/07/06 01:42:30;;;;;;;1.9;1.8;;;;;;;18.47;83.06934;95091.76;;;;
2020/07/06 01:43:31;;;;;;;1.9;1.8;;;;;;;18.47;83.06934;95091.76;;;;
2020/07/06 01:44:31;;;;;;;1.9;1.8;;;;;;;18.47;83.06934;95091.76;;;;
2020/07/06 01:45:32;;;;;;;1.9;1.8;;;;;;;18.47;83.06934;95091.76;;;;
2020/07/06 01:46:33;;;;;;;1.9;1.8;;;;;;;18.47;83.06934;95091.76;;;;
2020/07/06 01:47:33;;;;;;;1.9;1.8;;;;;;;18.47;83.06934;95091.76;;;;
2020/07/06 01:48:34;;;;;;;1.9;1.8;;;;;;;18.47;83.06934;95091.76;;;;
2020/07/06 01:49:34;;;;;;;3.85;1.95;;;;;;;18.47;83.55859;95096.69;;;;
2020/07/06 01:50:35;;;;;;;3.85;1.95;;;;;;;18.47;83.55859;95096.69;;;;
2020/07/06 01:51:35;;;;;;;3.85;1.95;;;;;;;18.47;83.55859;95096.69;;;;
2020/07/06 01:52:37;;;;;;;3.85;1.95;;;;;;;18.47;83.55859;95096.69;;;;
2020/07/06 01:53:37;;;;;;;3.85;1.95;;;;;;;18.47;83.55859;95096.69;;;;
2020/07/06 01:54:38;;;;;;;3.85;1.95;;;;;;;18.47;83.55859;95096.69;;;;
2020/07/06 01:55:38;;;;;;;3.85;1.95;;;;;;;18.47;83.55859;95096.69;;;;
2020/07/06 01:56:39;;;;;;;3.85;1.95;;;;;;;18.47;83.55859;95096.69;;;;
2020/07/06 01:57:39;;;;;;;3.85;1.95;;;;;;;18.47;83.55859;95096.69;;;;
2020/07/06 01:58:39;;;;;;;3.85;1.95;;;;;;;18.47;83.55859;95096.69;;;;
2020/07/06 01:59:40;;;;;;;3.85;1.95;;;;;;;18.47;83.55859;95096.69;;;;
2020/07/06 02:00:40;;;;;;;2.2;1.9;;;;;;;18.36;84.02637;95095.12;;;;
2020/07/06 02:01:41;;;;;;;2.2;1.9;;;;;;;18.36;84.02637;95095.12;;;;
2020/07/06 02:02:41;;;;;;;2.2;1.9;;;;;;;18.36;84.02637;95095.12;;;;
2020/07/06 02:03:42;;;;;;;2.2;1.9;;;;;;;18.36;84.02637;95095.12;;;;
2020/07/06 02:04:42;;;;;;;2.2;1.9;;;;;;;18.36;84.02637;95095.12;;;;
2020/07/06 02:05:43;;;;;;;2.2;1.9;;;;;;;18.36;84.02637;95095.12;;;;
2020/07/06 02:06:44;;;;;;;2.2;1.9;;;;;;;18.36;84.02637;95095.12;;;;
2020/07/06 02:07:44;;;;;;;2.2;1.9;;;;;;;18.36;84.02637;95095.12;;;;
2020/07/06 02:08:44;;;;;;;2.2;1.9;;;;;;;18.36;84.02637;95095.12;;;;
2020/07/06 02:09:45;;;;;;;2.2;1.9;;;;;;;18.36;84.02637;95095.12;;;;
2020/07/06 02:10:45;;;;;;;2.1;1.9;;;;;;;18.3;84.56738;95076.31;;;;
2020/07/06 02:11:46;;;;;;;2.1;1.9;;;;;;;18.3;84.56738;95076.31;;;;
2020/07/06 02:12:46;;;;;;;2.1;1.9;;;;;;;18.3;84.56738;95076.31;;;;
2020/07/06 02:13:47;;;;;;;2.1;1.9;;;;;;;18.3;84.56738;95076.31;;;;
2020/07/06 02:14:47;;;;;;;2.1;1.9;;;;;;;18.3;84.56738;95076.31;;;;
2020/07/06 02:15:48;;;;;;;2.1;1.9;;;;;;;18.3;84.56738;95076.31;;;;
2020/07/06 02:16:48;;;;;;;2.1;1.9;;;;;;;18.3;84.56738;95076.31;;;;
2020/07/06 02:17:49;;;;;;;2.1;1.9;;;;;;;18.3;84.56738;95076.31;;;;
2020/07/06 02:18:49;;;;;;;2.1;1.9;;;;;;;18.3;84.56738;95076.31;;;;
2020/07/06 02:19:50;;;;;;;2.1;1.9;;;;;;;18.3;84.56738;95076.31;;;;
2020/07/06 02:20:50;;;;;;;2.1;1.9;;;;;;;18.3;84.56738;95076.31;;;;
2020/07/06 02:21:51;;;;;;;2.25;2;;;;;;;18.06;85.18457;95066.31;;;;
2020/07/06 02:22:51;;;;;;;2.25;2;;;;;;;18.06;85.18457;95066.31;;;;
2020/07/06 02:23:52;;;;;;;2.25;2;;;;;;;18.06;85.18457;95066.31;;;;
2020/07/06 02:24:52;;;;;;;2.25;2;;;;;;;18.06;85.18457;95066.31;;;;
2020/07/06 02:25:53;;;;;;;2.25;2;;;;;;;18.06;85.18457;95066.31;;;;
2020/07/06 02:26:53;;;;;;;2.25;2;;;;;;;18.06;85.18457;95066.31;;;;
2020/07/06 02:27:54;;;;;;;2.25;2;;;;;;;18.06;85.18457;95066.31;;;;
2020/07/06 02:28:54;;;;;;;2.25;2;;;;;;;18.06;85.18457;95066.31;;;;
2020/07/06 02:29:55;;;;;;;2.25;2;;;;;;;18.06;85.18457;95066.31;;;;
2020/07/06 02:30:55;;;;;;;2.25;2;;;;;;;18.06;85.18457;95066.31;;;;
2020/07/06 02:31:56;;;;;;;4.55;2.25;;;;;;;17.83;85.86816;95056.94;;;;
2020/07/06 02:32:56;;;;;;;4.55;2.25;;;;;;;17.83;85.86816;95056.94;;;;
2020/07/06 02:33:56;;;;;;;4.55;2.25;;;;;;;17.83;85.86816;95056.94;;;;
2020/07/06 02:34:57;;;;;;;4.55;2.25;;;;;;;17.83;85.86816;95056.94;;;;
2020/07/06 02:35:57;;;;;;;4.55;2.25;;;;;;;17.83;85.86816;95056.94;;;;
2020/07/06 02:36:58;;;;;;;4.55;2.25;;;;;;;17.83;85.86816;95056.94;;;;
2020/07/06 02:37:59;;;;;;;4.55;2.25;;;;;;;17.83;85.86816;95056.94;;;;
2020/07/06 02:38:59;;;;;;;4.55;2.25;;;;;;;17.83;85.86816;95056.94;;;;
2020/07/06 02:40:00;;;;;;;4.55;2.25;;;;;;;17.83;85.86816;95056.94;;;;
2020/07/06 02:41:00;;;;;;;4.55;2.25;;;;;;;17.83;85.86816;95056.94;;;;
2020/07/06 02:42:00;;;;;;;4.55;2.25;;;;;;;17.83;85.86816;95056.94;;;;
2020/07/06 02:43:02;;;;;;;4.55;2.25;;;;;;;17.83;85.86816;95056.94;;;;
2020/07/06 02:44:02;;;;;;;4.55;2.25;;;;;;;17.83;85.86816;95056.94;;;;
2020/07/06 02:45:03;;;;;;;4.55;2.25;;;;;;;17.83;85.86816;95056.94;;;;
2020/07/06 02:46:04;;;;;;;4.55;2.25;;;;;;;17.83;85.86816;95056.94;;;;
2020/07/06 02:47:04;;;;;;;4.55;2.25;;;;;;;17.83;85.86816;95056.94;;;;
2020/07/06 02:48:06;;;;;;;4.55;2.25;;;;;;;17.83;85.86816;95056.94;;;;
2020/07/06 02:49:07;;;;;;;4.55;2.25;;;;;;;17.83;85.86816;95056.94;;;;
2020/07/06 02:50:08;;;;;;;4.55;2.25;;;;;;;17.83;85.86816;95056.94;;;;
2020/07/06 02:51:09;;;;;;;4.55;2.25;;;;;;;17.83;85.86816;95056.94;;;;
2020/07/06 02:52:09;;;;;;;4.55;2.25;;;;;;;17.83;85.86816;95056.94;;;;
2020/07/06 02:53:10;;;;;;;4.55;2.25;;;;;;;17.83;85.86816;95056.94;;;;
2020/07/06 02:54:11;;;;;;;4.55;2.25;;;;;;;17.83;85.86816;95056.94;;;;
2020/07/06 02:55:12;;;;;;;4.55;2.25;;;;;;;17.83;85.86816;95056.94;;;;
2020/07/06 02:56:12;;;;;;;4.55;2.25;;;;;;;17.83;85.86816;95056.94;;;;
2020/07/06 02:57:13;;;;;;;4.55;2.25;;;;;;;17.83;85.86816;95056.94;;;;
2020/07/06 02:58:13;;;;;;;4.55;2.25;;;;;;;17.83;85.86816;95056.94;;;;
2020/07/06 02:59:14;;;;;;;4.55;2.25;;;;;;;17.83;85.86816;95056.94;;;;
2020/07/06 03:00:14;;;;;;;4.55;2.25;;;;;;;17.83;85.86816;95056.94;;;;
2020/07/06 03:01:15;;;;;;;4.55;2.25;;;;;;;17.83;85.86816;95056.94;;;;
2020/07/06 03:02:15;;;;;;;4.55;2.25;;;;;;;17.83;85.86816;95056.94;;;;
2020/07/06 03:03:16;;;;;;;4.55;2.25;;;;;;;17.83;85.86816;95056.94;;;;
2020/07/06 03:04:16;;;;;;;4.55;2.25;;;;;;;17.83;85.86816;95056.94;;;;
2020/07/06 03:05:17;;;;;;;4.55;2.25;;;;;;;17.83;85.86816;95056.94;;;;
2020/07/06 03:06:18;;;;;;;4.55;2.25;;;;;;;17.83;85.86816;95056.94;;;;
2020/07/06 03:07:18;;;;;;;4.55;2.25;;;;;;;17.83;85.86816;95056.94;;;;
2020/07/06 03:08:19;;;;;;;4.55;2.25;;;;;;;17.83;85.86816;95056.94;;;;
2020/07/06 03:09:19;;;;;;;4.55;2.25;;;;;;;17.83;85.86816;95056.94;;;;
2020/07/06 03:10:20;;;;;;;4.55;2.25;;;;;;;17.83;85.86816;95056.94;;;;
2020/07/06 03:11:20;;;;;;;4.55;2.25;;;;;;;17.83;85.86816;95056.94;;;;
2020/07/06 03:12:20;;;;;;;4.55;2.25;;;;;;;17.83;85.86816;95056.94;;;;
2020/07/06 03:13:21;;;;;;;4.55;2.25;;;;;;;17.83;85.86816;95056.94;;;;
2020/07/06 03:14:21;;;;;;;4.55;2.25;;;;;;;17.83;85.86816;95056.94;;;;
2020/07/06 03:15:22;;;;;;;4.55;2.25;;;;;;;17.83;85.86816;95056.94;;;;
2020/07/06 03:16:22;;;;;;;4.55;2.25;;;;;;;17.83;85.86816;95056.94;;;;
2020/07/06 04:42:27;;;;;;;3.55;2;;;;;;;19.41;85.79102;94999.55;;;;
2020/07/06 04:43:28;;;;;;;3.55;2;;;;;;;19.41;85.79102;94999.55;;;;
2020/07/06 04:44:28;;;;;;;3.55;2;;;;;;;19.41;85.79102;94999.55;;;;
2020/07/06 04:45:28;;;;;;;3.55;2;;;;;;;19.41;85.79102;94999.55;;;;
2020/07/06 04:46:29;;;;;;;3.55;2;;;;;;;19.41;85.79102;94999.55;;;;
2020/07/06 04:47:29;;;;;;;3.55;2;;;;;;;19.41;85.79102;94999.55;;;;
2020/07/06 04:48:30;;;;;;;3.55;2;;;;;;;19.41;85.79102;94999.55;;;;
2020/07/06 04:49:31;;;;;;;3.55;2;;;;;;;19.41;85.79102;94999.55;;;;
2020/07/06 04:50:31;;;;;;;3.55;2;;;;;;;19.41;85.79102;94999.55;;;;
2020/07/06 04:51:31;;;;;;;3.55;2;;;;;;;19.41;85.79102;94999.55;;;;
2020/07/06 04:52:32;;;;;;;3.55;2;;;;;;;19.41;85.79102;94999.55;;;;
2020/07/06 04:53:33;;;;;;;3.55;2;;;;;;;19.41;85.79102;94999.55;;;;
2020/07/06 04:54:33;;;;;;;3.55;2;;;;;;;19.41;85.79102;94999.55;;;;
2020/07/06 04:55:34;;;;;;;3.55;2;;;;;;;19.41;85.79102;94999.55;;;;
2020/07/06 04:56:34;;;;;;;3.55;2;;;;;;;19.41;85.79102;94999.55;;;;
2020/07/06 04:57:35;;;;;;;3.55;2;;;;;;;19.41;85.79102;94999.55;;;;
2020/07/06 04:58:35;;;;;;;3.55;2;;;;;;;19.41;85.79102;94999.55;;;;
2020/07/06 04:59:36;;;;;;;3.55;2;;;;;;;19.41;85.79102;94999.55;;;;
2020/07/06 05:00:36;;;;;;;3.55;2;;;;;;;19.41;85.79102;94999.55;;;;
2020/07/06 05:01:37;;;;;;;3.55;2;;;;;;;19.41;85.79102;94999.55;;;;
2020/07/06 05:02:37;;;;;;;3.55;2;;;;;;;19.41;85.79102;94999.55;;;;
2020/07/06 05:03:38;;;;;;;3.55;2;;;;;;;19.41;85.79102;94999.55;;;;
2020/07/06 05:04:38;;;;;;;3.55;1.75;;;;;;;19.95;84.54297;94987.57;;;;
2020/07/06 05:05:39;;;;;;;3.55;1.75;;;;;;;19.95;84.54297;94987.57;;;;
2020/07/06 05:06:39;;;;;;;3.55;1.75;;;;;;;19.95;84.54297;94987.57;;;;
2020/07/06 05:07:40;;;;;;;3.55;1.75;;;;;;;19.95;84.54297;94987.57;;;;
2020/07/06 05:08:40;;;;;;;3.55;1.75;;;;;;;19.95;84.54297;94987.57;;;;
2020/07/06 05:09:41;;;;;;;3.55;1.75;;;;;;;19.95;84.54297;94987.57;;;;
2020/07/06 05:10:41;;;;;;;3.55;1.75;;;;;;;19.95;84.54297;94987.57;;;;
2020/07/06 05:11:42;;;;;;;3.55;1.75;;;;;;;19.95;84.54297;94987.57;;;;
2020/07/06 05:12:42;;;;;;;3.55;1.75;;;;;;;19.95;84.54297;94987.57;;;;
2020/07/06 05:13:43;;;;;;;3.55;1.75;;;;;;;19.95;84.54297;94987.57;;;;
2020/07/06 05:14:43;;;;;;;3.55;2;;;;;;;20.23;83.59473;94975.42;;;;
2020/07/06 05:15:44;;;;;;;3.55;2;;;;;;;20.23;83.59473;94975.42;;;;
2020/07/06 05:16:44;;;;;;;3.55;2;;;;;;;20.23;83.59473;94975.42;;;;
2020/07/06 05:17:45;;;;;;;3.55;2;;;;;;;20.23;83.59473;94975.42;;;;
2020/07/06 05:18:45;;;;;;;3.55;2;;;;;;;20.23;83.59473;94975.42;;;;
2020/07/06 05:19:46;;;;;;;3.55;2;;;;;;;20.23;83.59473;94975.42;;;;
2020/07/06 05:20:46;;;;;;;3.55;2;;;;;;;20.23;83.59473;94975.42;;;;
2020/07/06 05:21:47;;;;;;;3.55;2;;;;;;;20.23;83.59473;94975.42;;;;
2020/07/06 05:22:47;;;;;;;3.55;2;;;;;;;20.23;83.59473;94975.42;;;;
2020/07/06 05:23:48;;;;;;;3.55;2;;;;;;;20.23;83.59473;94975.42;;;;
2020/07/06 05:24:48;;;;;;;3.55;2;;;;;;;20.23;83.59473;94975.42;;;;
2020/07/06 05:25:49;;;;;;;2.9;1.7;;;;;;;20.57;82.68457;94958.54;;;;
2020/07/06 05:26:49;;;;;;;2.9;1.7;;;;;;;20.57;82.68457;94958.54;;;;
2020/07/06 05:27:50;;;;;;;2.9;1.7;;;;;;;20.57;82.68457;94958.54;;;;
2020/07/06 05:28:50;;;;;;;2.9;1.7;;;;;;;20.57;82.68457;94958.54;;;;
2020/07/06 05:29:51;;;;;;;2.9;1.7;;;;;;;20.57;82.68457;94958.54;;;;
2020/07/06 05:30:51;;;;;;;2.9;1.7;;;;;;;20.57;82.68457;94958.54;;;;
2020/07/06 05:31:52;;;;;;;2.9;1.7;;;;;;;20.57;82.68457;94958.54;;;;
2020/07/06 05:32:52;;;;;;;2.9;1.7;;;;;;;20.57;82.68457;94958.54;;;;
2020/07/06 05:33:53;;;;;;;2.9;1.7;;;;;;;20.57;82.68457;94958.54;;;;
2020/07/06 05:34:53;;;;;;;2.9;1.7;;;;;;;20.57;82.68457;94958.54;;;;
2020/07/06 05:35:54;;;;;;;2.9;1.7;;;;;;;20.57;82.68457;94958.54;;;;
2020/07/06 05:36:54;;;;;;;2.9;1.7;;;;;;;20.57;82.68457;94958.54;;;;
2020/07/06 05:37:55;;;;;;;2.9;1.7;;;;;;;20.57;82.68457;94958.54;;;;
2020/07/06 05:38:55;;;;;;;2.9;1.7;;;;;;;20.57;82.68457;94958.54;;;;
2020/07/06 05:39:56;;;;;;;2.9;1.7;;;;;;;20.57;82.68457;94958.54;;;;
2020/07/06 05:40:56;;;;;;;2.9;1.7;;;;;;;20.57;82.68457;94958.54;;;;
2020/07/06 05:41:57;;;;;;;2.9;1.7;;;;;;;20.57;82.68457;94958.54;;;;
2020/07/06 05:42:57;;;;;;;2.9;1.7;;;;;;;20.57;82.68457;94958.54;;;;
2020/07/06 05:43:58;;;;;;;2.9;1.7;;;;;;;20.57;82.68457;94958.54;;;;
2020/07/06 05:44:58;;;;;;;2.9;1.7;;;;;;;20.57;82.68457;94958.54;;;;
2020/07/06 05:45:59;;;;;;;2.9;1.7;;;;;;;20.57;82.68457;94958.54;;;;
2020/07/06 05:46:59;;;;;;;2.7;1.6;;;;;;;21.02;80.96387;94943.87;;;;
2020/07/06 05:48:00;;;;;;;2.7;1.6;;;;;;;21.02;80.96387;94943.87;;;;
2020/07/06 05:49:00;;;;;;;2.7;1.6;;;;;;;21.02;80.96387;94943.87;;;;
2020/07/06 05:50:01;;;;;;;2.7;1.6;;;;;;;21.02;80.96387;94943.87;;;;
2020/07/06 05:51:03;;;;;;;2.7;1.6;;;;;;;21.02;80.96387;94943.87;;;;
2020/07/06 05:52:04;;;;;;;2.7;1.6;;;;;;;21.02;80.96387;94943.87;;;;
2020/07/06 05:53:04;;;;;;;2.7;1.6;;;;;;;21.02;80.96387;94943.87;;;;
2020/07/06 05:54:05;;;;;;;2.7;1.6;;;;;;;21.02;80.96387;94943.87;;;;
2020/07/06 05:55:05;;;;;;;2.7;1.6;;;;;;;21.02;80.96387;94943.87;;;;
2020/07/06 05:56:06;;;;;;;2.7;1.6;;;;;;;21.02;80.96387;94943.87;;;;
2020/07/06 05:57:06;;;;;;;2.7;1.6;;;;;;;21.02;80.96387;94943.87;;;;
2020/07/06 05:58:07;;;;;;;2.95;1.5;;;;;;;21.27;79.96973;94951.65;;;;
2020/07/06 05:59:07;;;;;;;2.95;1.5;;;;;;;21.27;79.96973;94951.65;;;;
2020/07/06 06:00:08;;;;;;;2.95;1.5;;;;;;;21.27;79.96973;94951.65;;;;
2020/07/06 06:01:08;;;;;;;2.95;1.5;;;;;;;21.27;79.96973;94951.65;;;;
2020/07/06 06:02:09;;;;;;;2.95;1.5;;;;;;;21.27;79.96973;94951.65;;;;
2020/07/06 06:03:09;;;;;;;2.95;1.5;;;;;;;21.27;79.96973;94951.65;;;;
2020/07/06 06:04:09;;;;;;;2.95;1.5;;;;;;;21.27;79.96973;94951.65;;;;
2020/07/06 06:05:10;;;;;;;2.95;1.5;;;;;;;21.27;79.96973;94951.65;;;;
2020/07/06 06:06:10;;;;;;;2.95;1.5;;;;;;;21.27;79.96973;94951.65;;;;
2020/07/06 06:07:11;;;;;;;2.95;1.5;;;;;;;21.27;79.96973;94951.65;;;;
2020/07/06 06:08:11;;;;;;;2.95;1.5;;;;;;;21.27;79.96973;94951.65;;;;
2020/07/06 06:09:12;;;;;;;2.95;1.5;;;;;;;21.27;79.96973;94951.65;;;;
2020/07/06 06:10:12;;;;;;;2.95;1.5;;;;;;;21.27;79.96973;94951.65;;;;
2020/07/06 06:11:13;;;;;;;2.95;1.5;;;;;;;21.27;79.96973;94951.65;;;;
2020/07/06 06:12:13;;;;;;;2.95;1.5;;;;;;;21.27;79.96973;94951.65;;;;
2020/07/06 06:13:14;;;;;;;2.95;1.5;;;;;;;21.27;79.96973;94951.65;;;;
2020/07/06 06:14:14;;;;;;;2.95;1.5;;;;;;;21.27;79.96973;94951.65;;;;
2020/07/06 06:15:15;;;;;;;2.95;1.5;;;;;;;21.27;79.96973;94951.65;;;;
2020/07/06 06:16:15;;;;;;;2.95;1.5;;;;;;;21.27;79.96973;94951.65;;;;
2020/07/06 06:17:16;;;;;;;2.95;1.5;;;;;;;21.27;79.96973;94951.65;;;;
2020/07/06 06:18:16;;;;;;;2.95;1.5;;;;;;;21.27;79.96973;94951.65;;;;
2020/07/06 06:19:17;;;;;;;2.95;1.5;;;;;;;21.27;79.96973;94951.65;;;;
2020/07/06 06:20:17;;;;;;;2.95;1.5;;;;;;;21.27;79.96973;94951.65;;;;
2020/07/06 06:21:18;;;;;;;2.95;1.5;;;;;;;21.27;79.96973;94951.65;;;;
2020/07/06 06:22:18;;;;;;;2.95;1.5;;;;;;;21.27;79.96973;94951.65;;;;
2020/07/06 06:23:19;;;;;;;2.95;1.5;;;;;;;21.27;79.96973;94951.65;;;;
2020/07/06 06:24:19;;;;;;;2.95;1.5;;;;;;;21.27;79.96973;94951.65;;;;
2020/07/06 06:25:20;;;;;;;2.95;1.5;;;;;;;21.27;79.96973;94951.65;;;;
2020/07/06 06:26:20;;;;;;;2.95;1.5;;;;;;;21.27;79.96973;94951.65;;;;
2020/07/06 06:27:21;;;;;;;2.95;1.5;;;;;;;21.27;79.96973;94951.65;;;;
2020/07/06 06:28:21;;;;;;;2.95;1.5;;;;;;;21.27;79.96973;94951.65;;;;
2020/07/06 06:29:22;;;;;;;2.95;1.5;;;;;;;21.27;79.96973;94951.65;;;;
2020/07/06 06:30:22;;;;;;;2.95;1.5;;;;;;;21.27;79.96973;94951.65;;;;
2020/07/06 06:31:23;;;;;;;2.95;1.5;;;;;;;21.27;79.96973;94951.65;;;;
2020/07/06 06:32:23;;;;;;;2.95;1.5;;;;;;;21.27;79.96973;94951.65;;;;
2020/07/06 06:33:24;;;;;;;2.95;1.5;;;;;;;21.27;79.96973;94951.65;;;;
2020/07/06 06:34:24;;;;;;;2.95;1.5;;;;;;;21.27;79.96973;94951.65;;;;
2020/07/06 06:35:25;;;;;;;2.95;1.5;;;;;;;21.27;79.96973;94951.65;;;;
2020/07/06 06:36:25;;;;;;;2.95;1.5;;;;;;;21.27;79.96973;94951.65;;;;
2020/07/06 06:37:26;;;;;;;2.95;1.5;;;;;;;21.27;79.96973;94951.65;;;;
2020/07/06 06:38:26;;;;;;;2.95;1.5;;;;;;;21.27;79.96973;94951.65;;;;
2020/07/06 06:39:27;;;;;;;2.95;1.5;;;;;;;21.27;79.96973;94951.65;;;;
2020/07/06 06:40:27;;;;;;;2.95;1.5;;;;;;;21.27;79.96973;94951.65;;;;
2020/07/06 06:41:28;;;;;;;2.95;1.5;;;;;;;21.27;79.96973;94951.65;;;;
2020/07/06 07:13:30;;;;;;;4.849999;1.6;;;;;;;27.42;64.20313;94992.33;;;;
2020/07/06 07:14:30;;;;;;;4.849999;1.6;;;;;;;27.42;64.20313;94992.33;;;;
2020/07/06 07:15:31;;;;;;;4.849999;1.6;;;;;;;27.42;64.20313;94992.33;;;;
2020/07/06 07:16:31;;;;;;;4.849999;1.6;;;;;;;27.42;64.20313;94992.33;;;;
2020/07/06 07:17:31;;;;;;;4.849999;1.6;;;;;;;27.42;64.20313;94992.33;;;;
2020/07/06 07:18:32;;;;;;;4.849999;1.6;;;;;;;27.42;64.20313;94992.33;;;;
2020/07/06 07:19:32;;;;;;;4.849999;1.6;;;;;;;27.42;64.20313;94992.33;;;;
2020/07/06 07:20:33;;;;;;;4.849999;1.6;;;;;;;27.42;64.20313;94992.33;;;;
2020/07/06 07:21:33;;;;;;;4.849999;1.6;;;;;;;27.42;64.20313;94992.33;;;;
2020/07/06 07:22:34;;;;;;;4.849999;1.6;;;;;;;27.42;64.20313;94992.33;;;;
2020/07/06 07:23:34;;;;;;;4.849999;1.6;;;;;;;27.42;64.20313;94992.33;;;;
2020/07/06 07:24:35;;;;;;;3.1;1.7;;;;;;;28.49;60.11621;94987.98;;;;
2020/07/06 07:25:35;;;;;;;3.1;1.7;;;;;;;28.49;60.11621;94987.98;;;;
2020/07/06 07:26:36;;;;;;;3.1;1.7;;;;;;;28.49;60.11621;94987.98;;;;
2020/07/06 07:27:36;;;;;;;3.1;1.7;;;;;;;28.49;60.11621;94987.98;;;;
2020/07/06 07:28:37;;;;;;;3.1;1.7;;;;;;;28.49;60.11621;94987.98;;;;
2020/07/06 07:29:37;;;;;;;3.1;1.7;;;;;;;28.49;60.11621;94987.98;;;;
2020/07/06 07:30:38;;;;;;;3.1;1.7;;;;;;;28.49;60.11621;94987.98;;;;
2020/07/06 07:31:38;;;;;;;3.1;1.7;;;;;;;28.49;60.11621;94987.98;;;;
2020/07/06 07:32:39;;;;;;;3.1;1.7;;;;;;;28.49;60.11621;94987.98;;;;
2020/07/06 07:33:39;;;;;;;3.1;1.7;;;;;;;28.49;60.11621;94987.98;;;;
2020/07/06 07:34:40;;;;;;;5.4;1.7;;;;;;;27.65;59.93848;95002.17;;;;
2020/07/06 07:35:40;;;;;;;5.4;1.7;;;;;;;27.65;59.93848;95002.17;;;;
2020/07/06 07:36:41;;;;;;;5.4;1.7;;;;;;;27.65;59.93848;95002.17;;;;
2020/07/06 07:37:41;;;;;;;5.4;1.7;;;;;;;27.65;59.93848;95002.17;;;;
2020/07/06 07:38:42;;;;;;;5.4;1.7;;;;;;;27.65;59.93848;95002.17;;;;
2020/07/06 07:39:42;;;;;;;5.4;1.7;;;;;;;27.65;59.93848;95002.17;;;;
2020/07/06 07:40:43;;;;;;;5.4;1.7;;;;;;;27.65;59.93848;95002.17;;;;
2020/07/06 07:41:43;;;;;;;5.4;1.7;;;;;;;27.65;59.93848;95002.17;;;;
2020/07/06 07:42:44;;;;;;;5.4;1.7;;;;;;;27.65;59.93848;95002.17;;;;
2020/07/06 07:43:44;;;;;;;5.4;1.7;;;;;;;27.65;59.93848;95002.17;;;;
2020/07/06 07:44:44;;;;;;;5.4;1.7;;;;;;;27.65;59.93848;95002.17;;;;